Current Weather

Matam/Ouro Sogui

Matam/Ouro Sogui, Senegal (GOSM)

Report from: Friday, June 21, 2024 11:00 PM GMT
Current time: Friday, June 21, 2024 11:24 PM GMT

Nearby weather – Weather history – Daily summaries
Weather forecast

Temperature36.0°C (96.8°F)
Heat index38.9°C (102.1°F)
Dew point20.0°C (68.0°F)
Winds 2 kts (1 m/s, 2.3 mph) West (280°)
Clouds Sky clear
Altimeter29.77 in.Hg (1008 mB)
Relative humidity39 %
Density altitude2,870 ft. (875 m)
Remarks Ceiling and visibility OK
Flight conditions Visual Meteorological Conditions
Raw dataGOSM 212300Z 28002KT CAVOK 36/20 Q1008
An error has occurred. This application may no longer respond until reloaded. Reload 🗙